createdAt,value
2022-11-15T00:00:54.559Z,952.492981
2022-11-15T00:01:55.857Z,952.486084
2022-11-15T00:02:56.465Z,952.4396973
2022-11-15T00:03:56.923Z,952.397644
2022-11-15T00:04:57.419Z,952.380127
2022-11-15T00:05:57.881Z,952.4096069
2022-11-15T00:06:58.375Z,952.3936157
2022-11-15T00:07:59.768Z,952.3953247
2022-11-15T00:09:00.128Z,952.3931274
2022-11-15T00:10:00.563Z,952.3404541
2022-11-15T00:11:01.004Z,952.3156738
2022-11-15T00:12:02.320Z,952.3071289
2022-11-15T00:13:02.855Z,952.3071899
2022-11-15T00:14:04.056Z,952.2750244
2022-11-15T00:15:04.552Z,952.2630615
2022-11-15T00:16:05.021Z,952.253418
2022-11-15T00:17:05.481Z,952.2142334
2022-11-15T00:18:06.052Z,952.2103271
2022-11-15T00:19:06.404Z,952.2595215
2022-11-15T00:20:06.883Z,952.1953125
2022-11-15T00:21:07.357Z,952.2050781
2022-11-15T00:22:08.307Z,952.18573
2022-11-15T00:23:08.787Z,952.1932983
2022-11-15T00:24:09.274Z,952.1673584
2022-11-15T00:25:09.751Z,952.1878662
2022-11-15T00:26:10.228Z,952.2352905
2022-11-15T00:27:10.725Z,952.1723633
2022-11-15T00:28:11.974Z,952.1459351
2022-11-15T00:29:12.394Z,952.1022949
2022-11-15T00:30:12.895Z,952.1379395
2022-11-15T00:31:13.419Z,952.1434326
2022-11-15T00:32:14.837Z,952.1740723
2022-11-15T00:33:15.424Z,952.1897583
2022-11-15T00:34:15.753Z,952.2150269
2022-11-15T00:35:16.249Z,952.1821289
2022-11-15T00:36:16.778Z,952.1628418
2022-11-15T00:37:17.252Z,952.1691895
2022-11-15T00:38:17.744Z,952.1876831
2022-11-15T00:39:18.808Z,952.18927
2022-11-15T00:40:49.820Z,952.1339111
2022-11-15T00:41:50.289Z,952.1387329
2022-11-15T00:42:51.564Z,952.0524902
2022-11-15T00:43:52.062Z,952.0524902
2022-11-15T00:44:52.531Z,952.0621948
2022-11-15T00:45:52.954Z,952.0406494
2022-11-15T00:46:53.464Z,952.0477905
2022-11-15T00:47:53.939Z,952.0067139
2022-11-15T00:48:54.534Z,952.0828247
2022-11-15T00:49:54.855Z,952.0758057
2022-11-15T00:50:55.286Z,952.0499878
2022-11-15T00:51:55.734Z,952.0829468
2022-11-15T00:52:57.121Z,952.0404663
2022-11-15T00:53:57.613Z,952.0909424
2022-11-15T00:54:58.056Z,952.0722656
2022-11-15T00:55:58.489Z,952.0280762
2022-11-15T00:56:58.894Z,951.963623
2022-11-15T00:57:59.411Z,951.9127197
2022-11-15T00:58:59.858Z,951.9494019
2022-11-15T01:00:00.366Z,951.9413452
2022-11-15T01:01:00.854Z,951.9526367
2022-11-15T01:02:01.256Z,951.9768677
2022-11-15T01:03:02.543Z,951.9671631
2022-11-15T01:04:03.093Z,951.9429932
2022-11-15T01:05:03.583Z,951.9597778
2022-11-15T01:06:04.036Z,952.0076294
2022-11-15T01:07:04.496Z,951.9710693
2022-11-15T01:08:05.532Z,951.9915771
2022-11-15T01:09:06.035Z,951.8875122
2022-11-15T01:10:06.489Z,951.869873
2022-11-15T01:11:06.969Z,951.8198242
2022-11-15T01:12:07.623Z,951.84198
2022-11-15T01:13:09.034Z,951.8759155
2022-11-15T01:14:09.722Z,951.8156128
2022-11-15T01:15:10.221Z,951.8317261
2022-11-15T01:16:10.737Z,951.8247681
2022-11-15T01:17:11.153Z,951.8027954
2022-11-15T01:18:11.565Z,951.8135376
2022-11-15T01:19:12.005Z,951.8096924
2022-11-15T01:20:12.602Z,951.7926636
2022-11-15T01:21:13.161Z,951.7715454
2022-11-15T01:22:14.362Z,951.7489624
2022-11-15T01:23:14.817Z,951.8000488
2022-11-15T01:24:15.422Z,951.8152466
2022-11-15T01:25:15.726Z,951.8501587
2022-11-15T01:26:16.259Z,951.8928223
2022-11-15T01:27:17.554Z,951.9389648
2022-11-15T01:28:18.029Z,951.8858032
2022-11-15T01:29:49.178Z,951.8551636
2022-11-15T01:30:49.642Z,951.8236084
2022-11-15T01:31:50.862Z,951.8435669
2022-11-15T01:32:51.353Z,951.8114014
2022-11-15T01:33:51.765Z,951.821106
2022-11-15T01:34:53.028Z,951.8301392
2022-11-15T01:35:53.448Z,951.836731
2022-11-15T01:36:53.957Z,951.788269
2022-11-15T01:37:54.455Z,951.7974854
2022-11-15T01:38:54.931Z,951.8018799
2022-11-15T01:39:55.472Z,951.7873535
2022-11-15T01:40:55.932Z,951.7974854
2022-11-15T01:41:57.037Z,951.7872925
2022-11-15T01:42:58.147Z,951.7781982
2022-11-15T01:43:58.621Z,951.7210693
2022-11-15T01:44:59.122Z,951.7544556
2022-11-15T01:45:59.571Z,951.7245483
2022-11-15T01:46:59.986Z,951.6470337
2022-11-15T01:48:00.485Z,951.5665894
2022-11-15T01:49:00.937Z,951.5440063
2022-11-15T01:50:02.367Z,951.5456543
2022-11-15T01:51:02.778Z,951.5531006
2022-11-15T01:52:03.236Z,951.5010986
2022-11-15T01:53:04.606Z,951.5236206
2022-11-15T01:54:05.107Z,951.5392456
2022-11-15T01:55:05.731Z,951.5601807
2022-11-15T01:56:06.198Z,951.6183472
2022-11-15T01:57:06.856Z,951.5861816
2022-11-15T01:58:07.135Z,951.5618896
2022-11-15T01:59:07.698Z,951.567627
2022-11-15T02:00:08.199Z,951.5806274
2022-11-15T02:01:08.786Z,951.5504761
2022-11-15T02:02:09.374Z,951.5172119
2022-11-15T02:03:10.573Z,951.5089722
2022-11-15T02:04:11.040Z,951.5267334
2022-11-15T02:05:11.584Z,951.5734863
2022-11-15T02:06:12.312Z,951.5482788
2022-11-15T02:07:14.001Z,951.4981079
2022-11-15T02:08:14.325Z,951.5390625
2022-11-15T02:09:14.775Z,951.5293579
2022-11-15T02:10:15.233Z,951.5018921
2022-11-15T02:11:15.668Z,951.4975586
2022-11-15T02:12:16.828Z,951.5062256
2022-11-15T02:13:17.821Z,951.519043
2022-11-15T02:14:48.572Z,951.539978
2022-11-15T02:15:49.125Z,951.5100098
2022-11-15T02:16:49.728Z,951.5212402
2022-11-15T02:17:50.941Z,951.4884644
2022-11-15T02:18:51.313Z,951.505127
2022-11-15T02:19:51.743Z,951.517395
2022-11-15T02:20:52.172Z,951.4533691
2022-11-15T02:21:53.226Z,951.4619751
2022-11-15T02:22:54.681Z,951.4909668
2022-11-15T02:23:55.167Z,951.4746704
2022-11-15T02:24:55.590Z,951.4622803
2022-11-15T02:25:56.522Z,951.4188232
2022-11-15T02:26:56.924Z,951.3950806
2022-11-15T02:27:57.528Z,951.3847046
2022-11-15T02:28:57.894Z,951.3773193
2022-11-15T02:29:58.385Z,951.3466187
2022-11-15T02:30:58.866Z,951.3793945
2022-11-15T02:31:59.545Z,951.3574219
2022-11-15T02:33:00.893Z,951.309082
2022-11-15T02:34:01.378Z,951.2330322
2022-11-15T02:35:01.872Z,951.2421265
2022-11-15T02:36:02.368Z,951.2265625
2022-11-15T02:37:02.920Z,951.2346802
2022-11-15T02:38:04.295Z,951.2234497
2022-11-15T02:39:04.644Z,951.2179565
2022-11-15T02:40:05.125Z,951.1640625
2022-11-15T02:41:05.595Z,951.2045898
2022-11-15T02:42:06.041Z,951.1975098
2022-11-15T02:43:08.481Z,951.1937256
2022-11-15T02:44:08.306Z,951.2023315
2022-11-15T02:45:08.791Z,951.1534424
2022-11-15T02:46:09.297Z,951.1265869
2022-11-15T02:47:09.778Z,951.0629883
2022-11-15T02:48:10.267Z,951.0387573
2022-11-15T02:49:10.667Z,951.0178223
2022-11-15T02:50:11.293Z,951.0424805
2022-11-15T02:51:11.841Z,951.0230713
2022-11-15T02:52:12.369Z,951.0236816
2022-11-15T02:53:13.855Z,950.9777832
2022-11-15T02:54:14.368Z,950.9632568
2022-11-15T02:55:14.891Z,950.9714355
2022-11-15T02:56:15.400Z,951
2022-11-15T02:57:16.035Z,951.0214233
2022-11-15T02:58:16.396Z,950.9863892
2022-11-15T02:59:16.951Z,951.0101318
2022-11-15T03:00:48.073Z,951.0237427
2022-11-15T03:01:48.545Z,951.0236816
2022-11-15T03:02:49.247Z,951.0527954
2022-11-15T03:03:50.589Z,951.0150757
2022-11-15T03:04:51.111Z,951.0286865
2022-11-15T03:05:51.561Z,951.0402832
2022-11-15T03:06:52.183Z,951.0410767
2022-11-15T03:07:54.801Z,951.032959
2022-11-15T03:08:53.367Z,951.0265503
2022-11-15T03:09:53.789Z,951.053894
2022-11-15T03:10:54.332Z,951.0597534
2022-11-15T03:11:54.807Z,951.0259399
2022-11-15T03:12:55.283Z,951.0209351
2022-11-15T03:13:56.543Z,950.9973145
2022-11-15T03:14:57.113Z,951.0275269
2022-11-15T03:15:57.640Z,950.9640503
2022-11-15T03:16:58.231Z,950.9656372
2022-11-15T03:17:58.561Z,950.9698486
2022-11-15T03:18:59.077Z,950.9586182
2022-11-15T03:19:59.595Z,950.9046631
2022-11-15T03:21:00.084Z,950.8804932
2022-11-15T03:22:00.724Z,950.8892212
2022-11-15T03:23:01.027Z,950.8504639
2022-11-15T03:24:02.078Z,950.8320923
2022-11-15T03:25:02.621Z,950.7949829
2022-11-15T03:26:03.139Z,950.7955322
2022-11-15T03:27:04.449Z,950.8128052
2022-11-15T03:28:04.883Z,950.8208618
2022-11-15T03:29:05.385Z,950.7921753
2022-11-15T03:30:05.821Z,950.8040771
2022-11-15T03:31:06.329Z,950.7357178
2022-11-15T03:32:06.938Z,950.7121582
2022-11-15T03:33:08.330Z,950.6970215
2022-11-15T03:34:08.767Z,950.6624756
2022-11-15T03:35:09.195Z,950.6351318
2022-11-15T03:36:10.389Z,950.6626587
2022-11-15T03:37:10.978Z,950.6507568
2022-11-15T03:38:11.469Z,950.6137695
2022-11-15T03:39:15.115Z,950.5839844
2022-11-15T03:40:12.271Z,950.5914307
2022-11-15T03:41:12.789Z,950.585083
2022-11-15T03:42:14.146Z,950.6054688
2022-11-15T03:43:15.319Z,950.5657959
2022-11-15T03:44:15.810Z,950.5722656
2022-11-15T03:45:16.249Z,950.6379395
2022-11-15T03:46:47.383Z,950.6210938
2022-11-15T03:47:47.892Z,950.6307983
2022-11-15T03:48:48.401Z,950.6674805
2022-11-15T03:49:48.950Z,950.6185913
2022-11-15T03:50:49.439Z,950.6589966
2022-11-15T03:51:50.823Z,950.6884155
2022-11-15T03:52:51.373Z,950.6777954
2022-11-15T03:53:52.570Z,950.678772
2022-11-15T03:54:53.093Z,950.6464233
2022-11-15T03:55:53.609Z,950.6437988
2022-11-15T03:56:54.125Z,950.6243896
2022-11-15T03:57:54.764Z,950.6040649
2022-11-15T03:58:55.070Z,950.6049805
2022-11-15T03:59:55.572Z,950.5678101
2022-11-15T04:00:56.132Z,950.553894
2022-11-15T04:01:56.523Z,950.5814209
2022-11-15T04:02:56.986Z,950.5819702
2022-11-15T04:03:58.066Z,950.5916138
2022-11-15T04:04:58.667Z,950.6104736
2022-11-15T04:05:59.213Z,950.5770264
2022-11-15T04:06:59.802Z,950.585144
2022-11-15T04:08:00.167Z,950.5973511
2022-11-15T04:09:00.660Z,950.5474243
2022-11-15T04:10:01.207Z,950.5512695
2022-11-15T04:11:02.472Z,950.5125122
2022-11-15T04:12:02.910Z,950.515625
2022-11-15T04:13:03.301Z,950.5408325
2022-11-15T04:14:04.541Z,950.4984131
2022-11-15T04:15:05.040Z,950.5
2022-11-15T04:16:05.510Z,950.5435791
2022-11-15T04:17:06.025Z,950.4854736
2022-11-15T04:18:06.457Z,950.4795532
2022-11-15T04:19:06.978Z,950.4806519
2022-11-15T04:20:07.424Z,950.4489136
2022-11-15T04:21:07.939Z,950.4611206
2022-11-15T04:22:23.553Z,950.4271851
2022-11-15T04:23:09.160Z,950.4121094
2022-11-15T04:24:10.636Z,950.4224854
2022-11-15T04:25:11.109Z,950.3928223
2022-11-15T04:26:11.557Z,950.4034424
2022-11-15T04:27:12.117Z,950.3239136
2022-11-15T04:28:12.717Z,950.3135986
2022-11-15T04:29:13.091Z,950.3097534
2022-11-15T04:30:13.572Z,950.3110352
2022-11-15T04:31:14.017Z,950.3114014
2022-11-15T04:32:14.472Z,950.3190918
2022-11-15T04:33:14.990Z,950.3081055
2022-11-15T04:34:16.510Z,950.3109131
2022-11-15T04:35:47.215Z,950.2775269
2022-11-15T04:36:47.654Z,950.2736206
2022-11-15T04:37:49.447Z,950.2385864
2022-11-15T04:38:48.681Z,950.2498169
2022-11-15T04:39:49.163Z,950.2424316
2022-11-15T04:40:49.687Z,950.2295532
2022-11-15T04:41:50.832Z,950.1730347
2022-11-15T04:42:51.284Z,950.2231445
2022-11-15T04:43:52.599Z,950.2095337
2022-11-15T04:44:53.017Z,950.2177124
2022-11-15T04:45:53.559Z,950.1724854
2022-11-15T04:46:54.071Z,950.1774292
2022-11-15T04:47:54.518Z,950.1143799
2022-11-15T04:48:58.519Z,950.1187744
2022-11-15T04:49:55.474Z,950.12677
2022-11-15T04:50:55.993Z,950.1203003
2022-11-15T04:51:56.479Z,950.1052246
2022-11-15T04:52:57.011Z,950.09552
2022-11-15T04:53:58.381Z,950.1315918
2022-11-15T04:55:02.379Z,950.1209106
2022-11-15T04:55:59.355Z,950.0945435
2022-11-15T04:56:59.868Z,950.083252
2022-11-15T04:58:00.346Z,950.0809326
2022-11-15T04:59:00.821Z,950.0686646
2022-11-15T05:00:01.255Z,950.0368652
2022-11-15T05:01:01.834Z,950.0562744
2022-11-15T05:02:02.219Z,950.0379639
2022-11-15T05:03:02.702Z,950.0605469
2022-11-15T05:04:03.856Z,950.057373
2022-11-15T05:05:04.240Z,950.008728
2022-11-15T05:06:04.683Z,949.9726563
2022-11-15T05:07:05.313Z,949.9807739
2022-11-15T05:08:05.703Z,949.9667969
2022-11-15T05:09:06.359Z,949.9570923
2022-11-15T05:10:06.741Z,949.9230957
2022-11-15T05:11:07.178Z,949.9522705
2022-11-15T05:12:08.316Z,949.9570923
2022-11-15T05:13:08.858Z,949.9140625
2022-11-15T05:14:10.094Z,949.9157104
2022-11-15T05:15:10.283Z,949.9290771
2022-11-15T05:16:10.741Z,949.9286499
2022-11-15T05:17:11.186Z,949.9286499
2022-11-15T05:18:11.698Z,949.9441528
2022-11-15T05:19:12.184Z,949.8638916
2022-11-15T05:20:12.693Z,949.8390503
2022-11-15T05:21:13.150Z,949.8429565
2022-11-15T05:22:13.599Z,949.8762207
2022-11-15T05:23:14.051Z,949.8423462
2022-11-15T05:24:15.449Z,949.8823242
2022-11-15T05:25:46.299Z,949.9431152
2022-11-15T05:26:46.730Z,949.9376831
2022-11-15T05:27:47.160Z,949.8817139
2022-11-15T05:28:47.606Z,949.9004517
2022-11-15T05:29:48.132Z,949.8883057
2022-11-15T05:30:48.619Z,949.8543091
2022-11-15T05:31:49.156Z,949.8262329
2022-11-15T05:32:49.573Z,949.8320923
2022-11-15T05:33:50.060Z,949.7518921
2022-11-15T05:34:51.174Z,949.7739868
2022-11-15T05:35:51.647Z,949.7804565
2022-11-15T05:36:52.154Z,949.7584229
2022-11-15T05:37:53.563Z,949.7271729
2022-11-15T05:38:54.035Z,949.7262573
2022-11-15T05:39:54.454Z,949.7245483
2022-11-15T05:40:54.946Z,949.7229004
2022-11-15T05:41:55.453Z,949.7115479
2022-11-15T05:42:56.575Z,949.7028198
2022-11-15T05:43:57.822Z,949.6931152
2022-11-15T05:44:58.303Z,949.6895142
2022-11-15T05:45:59.532Z,949.6862793
2022-11-15T05:47:00.082Z,949.6517334
2022-11-15T05:48:00.559Z,949.6581421
2022-11-15T05:49:01.059Z,949.661377
2022-11-15T05:50:01.527Z,949.6630249
2022-11-15T05:51:01.930Z,949.6604614
2022-11-15T05:52:02.485Z,949.6743774
2022-11-15T05:53:05.366Z,949.6604614
2022-11-15T05:54:03.487Z,949.6915894
2022-11-15T05:55:03.974Z,949.6624146
2022-11-15T05:56:04.391Z,949.6420898
2022-11-15T05:57:05.853Z,949.710022
2022-11-15T05:58:06.399Z,949.6824951
2022-11-15T05:59:06.940Z,949.7092896
2022-11-15T06:00:07.565Z,949.6662598
2022-11-15T06:01:07.957Z,949.6813965
2022-11-15T06:02:08.543Z,949.6436157
2022-11-15T06:03:09.517Z,949.6716919
2022-11-15T06:04:10.039Z,949.5957642
2022-11-15T06:05:11.226Z,949.6328125
2022-11-15T06:06:16.225Z,949.6343994
2022-11-15T06:07:12.104Z,949.6657104
2022-11-15T06:08:12.449Z,949.6431274
2022-11-15T06:09:12.979Z,949.6242676
2022-11-15T06:10:13.538Z,949.6204834
2022-11-15T06:11:14.009Z,949.6253662
2022-11-15T06:12:14.452Z,949.6264038
2022-11-15T06:13:15.286Z,949.6404419
2022-11-15T06:14:46.612Z,949.6904907
2022-11-15T06:15:47.157Z,949.717041
2022-11-15T06:16:47.606Z,949.692749
2022-11-15T06:17:48.063Z,949.7529907
2022-11-15T06:18:48.533Z,949.7421875
2022-11-15T06:19:48.986Z,949.7739868
2022-11-15T06:20:49.536Z,949.7593994
2022-11-15T06:21:50.028Z,949.7901611
2022-11-15T06:22:50.513Z,949.7756348
2022-11-15T06:23:51.074Z,949.7787476
2022-11-15T06:24:52.058Z,949.769165
2022-11-15T06:25:52.660Z,949.7868652
2022-11-15T06:26:53.209Z,949.7659302
2022-11-15T06:27:53.736Z,949.7438965
2022-11-15T06:28:54.298Z,949.7907715
2022-11-15T06:29:54.778Z,949.7815552
2022-11-15T06:30:55.304Z,949.7675171
2022-11-15T06:31:55.812Z,949.74823
2022-11-15T06:32:56.346Z,949.7885742
2022-11-15T06:33:56.933Z,949.8032227
2022-11-15T06:34:58.115Z,949.7993774
2022-11-15T06:35:58.609Z,949.8155518
2022-11-15T06:36:59.040Z,949.8209229
2022-11-15T06:37:59.669Z,949.7717896
2022-11-15T06:39:00.193Z,949.7605591
2022-11-15T06:40:00.762Z,949.7540894
2022-11-15T06:41:01.321Z,949.7530518
2022-11-15T06:42:01.620Z,949.7589111
2022-11-15T06:43:02.114Z,949.7756348
2022-11-15T06:44:02.722Z,949.7798462
2022-11-15T06:45:04.129Z,949.7966919
2022-11-15T06:46:04.604Z,949.7637329
2022-11-15T06:47:05.010Z,949.7288208
2022-11-15T06:48:05.427Z,949.7686157
2022-11-15T06:49:09.614Z,949.7201538
2022-11-15T06:50:06.612Z,949.74823
2022-11-15T06:51:07.148Z,949.7589111
2022-11-15T06:52:07.618Z,949.7799072
2022-11-15T06:53:08.841Z,949.7695923
2022-11-15T06:54:09.341Z,949.7945557
2022-11-15T06:55:09.907Z,949.8024902
2022-11-15T06:56:11.132Z,949.7697144
2022-11-15T06:57:11.639Z,949.8062744
2022-11-15T06:58:12.110Z,949.8101807
2022-11-15T06:59:12.533Z,949.8354492
2022-11-15T07:00:13.128Z,949.8456421
2022-11-15T07:01:13.849Z,949.8900146
2022-11-15T07:02:14.139Z,949.9367676
2022-11-15T07:03:44.985Z,949.9701538
2022-11-15T07:04:46.322Z,949.9320068
2022-11-15T07:05:46.939Z,949.9406128
2022-11-15T07:06:47.547Z,949.9631958
2022-11-15T07:07:48.104Z,949.9934082
2022-11-15T07:08:48.472Z,949.9902954
2022-11-15T07:09:48.892Z,949.9799194
2022-11-15T07:10:49.356Z,950.0219727
2022-11-15T07:11:49.933Z,949.9993896
2022-11-15T07:12:50.534Z,950.0456543
2022-11-15T07:13:51.649Z,950.0010986
2022-11-15T07:14:52.436Z,950.0273438
2022-11-15T07:15:53.619Z,949.9584961
2022-11-15T07:16:54.251Z,950.015625
2022-11-15T07:17:54.892Z,949.9681396
2022-11-15T07:18:55.430Z,950.0284424
2022-11-15T07:19:56.049Z,949.9806519
2022-11-15T07:20:56.574Z,950.0204468
2022-11-15T07:21:57.030Z,950.0404663
2022-11-15T07:22:58.405Z,949.9961548
2022-11-15T07:23:58.907Z,949.9682617
2022-11-15T07:25:00.370Z,950.0204468
2022-11-15T07:26:00.850Z,949.9753418
2022-11-15T07:27:01.430Z,949.9845581
2022-11-15T07:28:01.807Z,949.9009399
2022-11-15T07:29:02.307Z,949.9445801
2022-11-15T07:30:02.785Z,949.8989258
2022-11-15T07:31:03.299Z,949.9064331
2022-11-15T07:32:04.070Z,949.9543457
2022-11-15T07:33:04.544Z,949.9542236
2022-11-15T07:34:05.271Z,949.9672852
2022-11-15T07:35:06.414Z,949.9699097
2022-11-15T07:36:06.941Z,949.9612427
2022-11-15T07:37:07.431Z,949.9484253
2022-11-15T07:38:07.839Z,949.9429932
2022-11-15T07:39:08.253Z,949.9569702
2022-11-15T07:40:08.725Z,949.963501
2022-11-15T07:41:09.179Z,949.9587402
2022-11-15T07:42:09.682Z,949.9170532
2022-11-15T07:43:10.112Z,949.8692017
2022-11-15T07:44:11.539Z,949.9398193
2022-11-15T07:45:12.832Z,949.9269409
2022-11-15T07:46:13.397Z,949.8173218
2022-11-15T07:47:44.643Z,949.8233032
2022-11-15T07:48:45.601Z,949.8428345
2022-11-15T07:49:45.416Z,949.8033447
2022-11-15T07:50:45.834Z,949.8157959
2022-11-15T07:51:46.368Z,949.8239136
2022-11-15T07:52:47.877Z,949.8401489
2022-11-15T07:53:48.295Z,949.8599854
2022-11-15T07:54:48.713Z,949.9207764
2022-11-15T07:55:49.164Z,949.9134521
2022-11-15T07:56:50.582Z,949.8795166
2022-11-15T07:57:51.208Z,949.8670044
2022-11-15T07:58:51.664Z,949.8793945
2022-11-15T07:59:52.409Z,949.8632813
2022-11-15T08:00:52.877Z,949.8859863
2022-11-15T08:01:53.599Z,949.9129028
2022-11-15T08:02:54.190Z,949.9310913
2022-11-15T08:03:54.262Z,949.9042969
2022-11-15T08:04:54.743Z,949.8901367
2022-11-15T08:05:56.057Z,949.9070435
2022-11-15T08:06:56.614Z,949.9299927
2022-11-15T08:07:57.049Z,949.9420166
2022-11-15T08:08:57.521Z,949.9576416
2022-11-15T08:09:57.971Z,949.9968872
2022-11-15T08:10:58.489Z,949.9693604
2022-11-15T08:11:58.943Z,949.9759521
2022-11-15T08:12:59.523Z,950.0212402
2022-11-15T08:14:00.410Z,949.9893188
2022-11-15T08:15:00.916Z,949.9277954
